sensor_id;sensor_type;location;lat;lon;timestamp;P1;durP1;ratioP1;P2;durP2;ratioP2
9328;SDS011;4703;48.748;19.142;2022-12-07T00:01:37;7.17;;;6.43;;
9328;SDS011;4703;48.748;19.142;2022-12-07T00:04:06;8.07;;;7.27;;
9328;SDS011;4703;48.748;19.142;2022-12-07T00:06:41;8.60;;;7.53;;
9328;SDS011;4703;48.748;19.142;2022-12-07T00:09:15;9.53;;;8.10;;
9328;SDS011;4703;48.748;19.142;2022-12-07T00:11:44;11.40;;;7.70;;
9328;SDS011;4703;48.748;19.142;2022-12-07T00:14:15;12.40;;;9.13;;
9328;SDS011;4703;48.748;19.142;2022-12-07T00:16:43;11.70;;;8.20;;
9328;SDS011;4703;48.748;19.142;2022-12-07T00:19:12;9.33;;;6.93;;
9328;SDS011;4703;48.748;19.142;2022-12-07T00:21:39;8.90;;;7.70;;
9328;SDS011;4703;48.748;19.142;2022-12-07T00:24:07;6.93;;;6.23;;
9328;SDS011;4703;48.748;19.142;2022-12-07T00:26:36;8.33;;;7.53;;
9328;SDS011;4703;48.748;19.142;2022-12-07T00:29:07;10.13;;;7.90;;
9328;SDS011;4703;48.748;19.142;2022-12-07T00:31:45;8.63;;;7.20;;
9328;SDS011;4703;48.748;19.142;2022-12-07T00:34:16;10.60;;;6.93;;
9328;SDS011;4703;48.748;19.142;2022-12-07T00:36:45;6.57;;;5.63;;
9328;SDS011;4703;48.748;19.142;2022-12-07T00:39:13;7.57;;;6.40;;
9328;SDS011;4703;48.748;19.142;2022-12-07T00:41:40;9.73;;;6.40;;
9328;SDS011;4703;48.748;19.142;2022-12-07T00:44:07;6.90;;;6.20;;
9328;SDS011;4703;48.748;19.142;2022-12-07T00:46:35;8.30;;;6.60;;
9328;SDS011;4703;48.748;19.142;2022-12-07T00:49:03;8.83;;;6.40;;
9328;SDS011;4703;48.748;19.142;2022-12-07T00:51:30;9.10;;;6.90;;
9328;SDS011;4703;48.748;19.142;2022-12-07T00:53:57;6.47;;;5.83;;
9328;SDS011;4703;48.748;19.142;2022-12-07T00:56:25;9.97;;;6.97;;
9328;SDS011;4703;48.748;19.142;2022-12-07T00:58:58;6.93;;;5.70;;
9328;SDS011;4703;48.748;19.142;2022-12-07T01:01:29;7.03;;;5.27;;
9328;SDS011;4703;48.748;19.142;2022-12-07T01:04:00;6.20;;;5.60;;
9328;SDS011;4703;48.748;19.142;2022-12-07T01:06:27;7.40;;;6.10;;
9328;SDS011;4703;48.748;19.142;2022-12-07T01:08:55;6.47;;;5.87;;
9328;SDS011;4703;48.748;19.142;2022-12-07T01:11:24;7.00;;;5.87;;
9328;SDS011;4703;48.748;19.142;2022-12-07T01:13:54;6.07;;;5.47;;
9328;SDS011;4703;48.748;19.142;2022-12-07T01:16:24;6.70;;;5.97;;
9328;SDS011;4703;48.748;19.142;2022-12-07T01:18:54;8.53;;;6.00;;
9328;SDS011;4703;48.748;19.142;2022-12-07T01:21:24;6.43;;;5.40;;
9328;SDS011;4703;48.748;19.142;2022-12-07T01:23:53;7.20;;;5.57;;
9328;SDS011;4703;48.748;19.142;2022-12-07T01:26:23;5.47;;;5.07;;
9328;SDS011;4703;48.748;19.142;2022-12-07T01:28:52;6.30;;;5.43;;
9328;SDS011;4703;48.748;19.142;2022-12-07T01:31:22;5.27;;;4.77;;
9328;SDS011;4703;48.748;19.142;2022-12-07T01:33:52;6.10;;;5.50;;
9328;SDS011;4703;48.748;19.142;2022-12-07T01:38:58;6.50;;;5.40;;
9328;SDS011;4703;48.748;19.142;2022-12-07T01:41:30;5.30;;;4.80;;
9328;SDS011;4703;48.748;19.142;2022-12-07T01:46:49;5.60;;;5.10;;
9328;SDS011;4703;48.748;19.142;2022-12-07T01:54:58;7.40;;;6.20;;
9328;SDS011;4703;48.748;19.142;2022-12-07T01:57:30;6.57;;;5.97;;
9328;SDS011;4703;48.748;19.142;2022-12-07T02:00:01;6.47;;;5.77;;
9328;SDS011;4703;48.748;19.142;2022-12-07T02:02:32;5.80;;;5.30;;
9328;SDS011;4703;48.748;19.142;2022-12-07T02:05:04;7.00;;;5.23;;
9328;SDS011;4703;48.748;19.142;2022-12-07T02:07:32;6.73;;;5.53;;
9328;SDS011;4703;48.748;19.142;2022-12-07T02:10:16;8.97;;;6.20;;
9328;SDS011;4703;48.748;19.142;2022-12-07T02:12:48;9.23;;;5.43;;
9328;SDS011;4703;48.748;19.142;2022-12-07T02:15:38;7.13;;;5.60;;
9328;SDS011;4703;48.748;19.142;2022-12-07T02:24:24;8.50;;;6.40;;
9328;SDS011;4703;48.748;19.142;2022-12-07T02:30:00;6.27;;;5.67;;
9328;SDS011;4703;48.748;19.142;2022-12-07T02:41:12;6.43;;;5.70;;
9328;SDS011;4703;48.748;19.142;2022-12-07T02:43:50;6.37;;;5.30;;
9328;SDS011;4703;48.748;19.142;2022-12-07T02:46:22;6.17;;;5.37;;
9328;SDS011;4703;48.748;19.142;2022-12-07T02:48:57;7.03;;;5.70;;
9328;SDS011;4703;48.748;19.142;2022-12-07T02:51:29;6.40;;;5.80;;
9328;SDS011;4703;48.748;19.142;2022-12-07T02:53:59;7.80;;;6.73;;
9328;SDS011;4703;48.748;19.142;2022-12-07T03:00:14;7.57;;;5.97;;
9328;SDS011;4703;48.748;19.142;2022-12-07T03:14:17;6.30;;;5.40;;
9328;SDS011;4703;48.748;19.142;2022-12-07T03:17:20;6.37;;;5.77;;
9328;SDS011;4703;48.748;19.142;2022-12-07T03:19:54;6.90;;;5.73;;
9328;SDS011;4703;48.748;19.142;2022-12-07T03:22:25;8.13;;;6.10;;
9328;SDS011;4703;48.748;19.142;2022-12-07T03:24:58;7.20;;;6.40;;
9328;SDS011;4703;48.748;19.142;2022-12-07T03:27:37;6.53;;;5.93;;
9328;SDS011;4703;48.748;19.142;2022-12-07T03:30:15;6.80;;;6.10;;
9328;SDS011;4703;48.748;19.142;2022-12-07T03:32:53;6.20;;;5.60;;
9328;SDS011;4703;48.748;19.142;2022-12-07T03:35:43;6.73;;;5.77;;
9328;SDS011;4703;48.748;19.142;2022-12-07T03:38:21;6.20;;;5.60;;
9328;SDS011;4703;48.748;19.142;2022-12-07T03:41:06;6.07;;;5.47;;
9328;SDS011;4703;48.748;19.142;2022-12-07T03:43:39;5.43;;;4.93;;
9328;SDS011;4703;48.748;19.142;2022-12-07T03:55:11;9.33;;;6.83;;
9328;SDS011;4703;48.748;19.142;2022-12-07T03:57:46;6.03;;;5.37;;
9328;SDS011;4703;48.748;19.142;2022-12-07T04:00:16;6.90;;;6.30;;
9328;SDS011;4703;48.748;19.142;2022-12-07T04:02:44;7.20;;;6.50;;
9328;SDS011;4703;48.748;19.142;2022-12-07T04:05:11;7.50;;;6.20;;
9328;SDS011;4703;48.748;19.142;2022-12-07T04:07:38;7.67;;;6.90;;
9328;SDS011;4703;48.748;19.142;2022-12-07T04:10:06;7.50;;;6.03;;
9328;SDS011;4703;48.748;19.142;2022-12-07T04:12:34;6.30;;;5.70;;
9328;SDS011;4703;48.748;19.142;2022-12-07T04:15:01;9.30;;;7.57;;
9328;SDS011;4703;48.748;19.142;2022-12-07T04:17:30;8.83;;;6.70;;
9328;SDS011;4703;48.748;19.142;2022-12-07T04:19:57;7.97;;;7.13;;
9328;SDS011;4703;48.748;19.142;2022-12-07T04:22:24;8.70;;;7.60;;
9328;SDS011;4703;48.748;19.142;2022-12-07T04:24:51;9.73;;;7.93;;
9328;SDS011;4703;48.748;19.142;2022-12-07T04:27:18;8.57;;;6.87;;
9328;SDS011;4703;48.748;19.142;2022-12-07T04:29:45;9.80;;;8.37;;
9328;SDS011;4703;48.748;19.142;2022-12-07T04:32:12;6.60;;;5.90;;
9328;SDS011;4703;48.748;19.142;2022-12-07T04:34:39;6.83;;;6.13;;
9328;SDS011;4703;48.748;19.142;2022-12-07T04:37:06;7.80;;;6.63;;
9328;SDS011;4703;48.748;19.142;2022-12-07T04:39:33;8.60;;;7.20;;
9328;SDS011;4703;48.748;19.142;2022-12-07T04:42:00;8.27;;;6.03;;
9328;SDS011;4703;48.748;19.142;2022-12-07T04:44:28;8.43;;;6.70;;
9328;SDS011;4703;48.748;19.142;2022-12-07T04:46:56;8.33;;;7.07;;
9328;SDS011;4703;48.748;19.142;2022-12-07T04:49:23;8.93;;;7.60;;
9328;SDS011;4703;48.748;19.142;2022-12-07T04:51:51;8.37;;;6.80;;
9328;SDS011;4703;48.748;19.142;2022-12-07T04:54:18;9.00;;;6.93;;
9328;SDS011;4703;48.748;19.142;2022-12-07T04:56:45;7.33;;;6.63;;
9328;SDS011;4703;48.748;19.142;2022-12-07T04:59:13;9.90;;;6.50;;
9328;SDS011;4703;48.748;19.142;2022-12-07T05:01:41;10.33;;;8.17;;
9328;SDS011;4703;48.748;19.142;2022-12-07T05:04:09;8.17;;;6.67;;
9328;SDS011;4703;48.748;19.142;2022-12-07T05:06:36;10.83;;;8.60;;
9328;SDS011;4703;48.748;19.142;2022-12-07T05:09:03;10.23;;;7.83;;
9328;SDS011;4703;48.748;19.142;2022-12-07T05:11:31;9.80;;;7.93;;
9328;SDS011;4703;48.748;19.142;2022-12-07T05:14:09;12.77;;;8.87;;
9328;SDS011;4703;48.748;19.142;2022-12-07T05:16:40;8.57;;;7.53;;
9328;SDS011;4703;48.748;19.142;2022-12-07T05:19:08;12.30;;;9.43;;
9328;SDS011;4703;48.748;19.142;2022-12-07T05:21:36;12.53;;;9.17;;
9328;SDS011;4703;48.748;19.142;2022-12-07T05:24:04;11.00;;;8.70;;
9328;SDS011;4703;48.748;19.142;2022-12-07T05:26:32;11.63;;;9.53;;
9328;SDS011;4703;48.748;19.142;2022-12-07T05:29:00;11.67;;;9.23;;
9328;SDS011;4703;48.748;19.142;2022-12-07T05:31:27;13.30;;;9.60;;
9328;SDS011;4703;48.748;19.142;2022-12-07T05:33:55;10.80;;;8.40;;
9328;SDS011;4703;48.748;19.142;2022-12-07T05:36:22;10.00;;;9.00;;
9328;SDS011;4703;48.748;19.142;2022-12-07T05:38:49;9.00;;;7.70;;
9328;SDS011;4703;48.748;19.142;2022-12-07T05:41:17;11.23;;;8.87;;
9328;SDS011;4703;48.748;19.142;2022-12-07T05:44:04;8.83;;;7.93;;
9328;SDS011;4703;48.748;19.142;2022-12-07T05:46:31;11.53;;;8.97;;
9328;SDS011;4703;48.748;19.142;2022-12-07T05:48:59;8.50;;;7.60;;
9328;SDS011;4703;48.748;19.142;2022-12-07T05:51:27;9.20;;;8.33;;
9328;SDS011;4703;48.748;19.142;2022-12-07T05:53:54;10.00;;;7.40;;
9328;SDS011;4703;48.748;19.142;2022-12-07T05:56:21;10.83;;;8.10;;
9328;SDS011;4703;48.748;19.142;2022-12-07T05:58:48;9.47;;;8.07;;
9328;SDS011;4703;48.748;19.142;2022-12-07T06:01:34;11.70;;;9.10;;
9328;SDS011;4703;48.748;19.142;2022-12-07T06:04:01;13.90;;;11.10;;
9328;SDS011;4703;48.748;19.142;2022-12-07T06:06:28;13.33;;;10.30;;
9328;SDS011;4703;48.748;19.142;2022-12-07T06:08:55;10.53;;;8.70;;
9328;SDS011;4703;48.748;19.142;2022-12-07T06:11:22;11.00;;;8.40;;
9328;SDS011;4703;48.748;19.142;2022-12-07T06:14:08;10.07;;;8.77;;
9328;SDS011;4703;48.748;19.142;2022-12-07T06:16:35;9.43;;;7.67;;
9328;SDS011;4703;48.748;19.142;2022-12-07T06:19:02;12.23;;;8.30;;
9328;SDS011;4703;48.748;19.142;2022-12-07T06:21:29;11.80;;;9.30;;
9328;SDS011;4703;48.748;19.142;2022-12-07T06:23:56;11.07;;;8.47;;
9328;SDS011;4703;48.748;19.142;2022-12-07T06:26:23;11.07;;;9.13;;
9328;SDS011;4703;48.748;19.142;2022-12-07T06:28:50;10.53;;;9.43;;
9328;SDS011;4703;48.748;19.142;2022-12-07T06:31:17;11.23;;;9.63;;
9328;SDS011;4703;48.748;19.142;2022-12-07T06:33:44;10.93;;;9.40;;
9328;SDS011;4703;48.748;19.142;2022-12-07T06:36:11;12.90;;;10.17;;
9328;SDS011;4703;48.748;19.142;2022-12-07T06:38:38;11.70;;;8.90;;
9328;SDS011;4703;48.748;19.142;2022-12-07T06:41:05;13.43;;;10.47;;
9328;SDS011;4703;48.748;19.142;2022-12-07T06:43:33;13.10;;;9.27;;
9328;SDS011;4703;48.748;19.142;2022-12-07T06:46:00;10.93;;;9.07;;
9328;SDS011;4703;48.748;19.142;2022-12-07T06:48:27;11.10;;;9.77;;
9328;SDS011;4703;48.748;19.142;2022-12-07T06:50:54;13.00;;;9.73;;
9328;SDS011;4703;48.748;19.142;2022-12-07T06:53:21;10.77;;;8.10;;
9328;SDS011;4703;48.748;19.142;2022-12-07T06:55:49;12.10;;;9.57;;
9328;SDS011;4703;48.748;19.142;2022-12-07T06:58:16;10.57;;;8.40;;
9328;SDS011;4703;48.748;19.142;2022-12-07T07:00:44;14.33;;;10.70;;
9328;SDS011;4703;48.748;19.142;2022-12-07T07:03:11;16.13;;;8.70;;
9328;SDS011;4703;48.748;19.142;2022-12-07T07:05:38;14.40;;;10.37;;
9328;SDS011;4703;48.748;19.142;2022-12-07T07:08:06;14.97;;;11.60;;
9328;SDS011;4703;48.748;19.142;2022-12-07T07:10:49;12.33;;;10.93;;
9328;SDS011;4703;48.748;19.142;2022-12-07T07:13:16;11.33;;;9.07;;
9328;SDS011;4703;48.748;19.142;2022-12-07T07:15:46;8.87;;;7.80;;
9328;SDS011;4703;48.748;19.142;2022-12-07T07:18:13;8.27;;;7.43;;
9328;SDS011;4703;48.748;19.142;2022-12-07T07:20:42;8.63;;;7.17;;
9328;SDS011;4703;48.748;19.142;2022-12-07T07:23:09;20.43;;;15.23;;
9328;SDS011;4703;48.748;19.142;2022-12-07T07:25:36;15.57;;;11.70;;
9328;SDS011;4703;48.748;19.142;2022-12-07T07:28:03;9.90;;;8.63;;
9328;SDS011;4703;48.748;19.142;2022-12-07T07:30:30;13.70;;;10.03;;
9328;SDS011;4703;48.748;19.142;2022-12-07T07:32:58;12.00;;;10.23;;
9328;SDS011;4703;48.748;19.142;2022-12-07T07:35:27;9.67;;;8.43;;
9328;SDS011;4703;48.748;19.142;2022-12-07T07:37:56;12.13;;;9.83;;
9328;SDS011;4703;48.748;19.142;2022-12-07T07:40:24;9.20;;;8.10;;
9328;SDS011;4703;48.748;19.142;2022-12-07T07:42:53;9.87;;;7.47;;
9328;SDS011;4703;48.748;19.142;2022-12-07T07:45:21;9.93;;;8.93;;
9328;SDS011;4703;48.748;19.142;2022-12-07T07:47:50;9.60;;;7.93;;
9328;SDS011;4703;48.748;19.142;2022-12-07T07:50:18;9.27;;;8.37;;
9328;SDS011;4703;48.748;19.142;2022-12-07T07:52:45;10.10;;;8.87;;
9328;SDS011;4703;48.748;19.142;2022-12-07T07:55:12;9.37;;;8.47;;
9328;SDS011;4703;48.748;19.142;2022-12-07T07:57:42;10.93;;;8.40;;
9328;SDS011;4703;48.748;19.142;2022-12-07T08:00:15;9.70;;;8.53;;
9328;SDS011;4703;48.748;19.142;2022-12-07T08:02:43;9.30;;;8.30;;
9328;SDS011;4703;48.748;19.142;2022-12-07T08:05:10;8.87;;;7.97;;
9328;SDS011;4703;48.748;19.142;2022-12-07T08:07:38;9.30;;;8.20;;
9328;SDS011;4703;48.748;19.142;2022-12-07T08:10:06;10.40;;;9.13;;
9328;SDS011;4703;48.748;19.142;2022-12-07T08:12:37;13.20;;;10.20;;
9328;SDS011;4703;48.748;19.142;2022-12-07T08:15:27;11.27;;;9.27;;
9328;SDS011;4703;48.748;19.142;2022-12-07T08:17:56;10.70;;;9.20;;
9328;SDS011;4703;48.748;19.142;2022-12-07T08:20:24;12.27;;;9.00;;
9328;SDS011;4703;48.748;19.142;2022-12-07T08:22:51;29.13;;;18.80;;
9328;SDS011;4703;48.748;19.142;2022-12-07T08:25:20;11.57;;;9.10;;
9328;SDS011;4703;48.748;19.142;2022-12-07T08:27:48;9.87;;;8.67;;
9328;SDS011;4703;48.748;19.142;2022-12-07T08:30:16;11.40;;;8.40;;
9328;SDS011;4703;48.748;19.142;2022-12-07T08:32:46;10.50;;;9.00;;
9328;SDS011;4703;48.748;19.142;2022-12-07T08:35:14;9.97;;;8.10;;
9328;SDS011;4703;48.748;19.142;2022-12-07T08:37:42;11.00;;;8.93;;
9328;SDS011;4703;48.748;19.142;2022-12-07T08:40:09;10.33;;;8.90;;
9328;SDS011;4703;48.748;19.142;2022-12-07T08:42:47;10.07;;;8.37;;
9328;SDS011;4703;48.748;19.142;2022-12-07T08:45:16;11.30;;;9.80;;
9328;SDS011;4703;48.748;19.142;2022-12-07T08:47:53;14.50;;;10.53;;
9328;SDS011;4703;48.748;19.142;2022-12-07T08:50:28;10.77;;;9.30;;
9328;SDS011;4703;48.748;19.142;2022-12-07T08:52:56;39.50;;;30.40;;
9328;SDS011;4703;48.748;19.142;2022-12-07T08:55:24;26.97;;;21.77;;
9328;SDS011;4703;48.748;19.142;2022-12-07T08:57:53;13.60;;;11.50;;
9328;SDS011;4703;48.748;19.142;2022-12-07T09:00:20;11.60;;;10.40;;
9328;SDS011;4703;48.748;19.142;2022-12-07T09:02:47;14.10;;;11.67;;
9328;SDS011;4703;48.748;19.142;2022-12-07T09:05:14;10.63;;;9.43;;
9328;SDS011;4703;48.748;19.142;2022-12-07T09:07:46;12.90;;;11.33;;
9328;SDS011;4703;48.748;19.142;2022-12-07T09:10:17;11.30;;;9.80;;
9328;SDS011;4703;48.748;19.142;2022-12-07T09:12:44;12.17;;;10.23;;
9328;SDS011;4703;48.748;19.142;2022-12-07T09:15:11;26.80;;;19.97;;
9328;SDS011;4703;48.748;19.142;2022-12-07T09:17:38;14.90;;;11.23;;
9328;SDS011;4703;48.748;19.142;2022-12-07T09:20:06;8.60;;;7.13;;
9328;SDS011;4703;48.748;19.142;2022-12-07T09:22:34;4.30;;;3.80;;
9328;SDS011;4703;48.748;19.142;2022-12-07T09:25:01;5.80;;;4.20;;
9328;SDS011;4703;48.748;19.142;2022-12-07T09:27:31;4.30;;;2.80;;
9328;SDS011;4703;48.748;19.142;2022-12-07T09:29:58;3.80;;;3.40;;
9328;SDS011;4703;48.748;19.142;2022-12-07T09:32:25;65.97;;;7.40;;
9328;SDS011;4703;48.748;19.142;2022-12-07T09:34:52;3.57;;;3.03;;
9328;SDS011;4703;48.748;19.142;2022-12-07T09:37:19;4.70;;;3.43;;
9328;SDS011;4703;48.748;19.142;2022-12-07T09:39:47;9.33;;;7.47;;
9328;SDS011;4703;48.748;19.142;2022-12-07T09:42:24;9.90;;;8.70;;
9328;SDS011;4703;48.748;19.142;2022-12-07T09:44:56;3.70;;;3.40;;
9328;SDS011;4703;48.748;19.142;2022-12-07T09:47:24;3.43;;;3.13;;
9328;SDS011;4703;48.748;19.142;2022-12-07T09:49:53;5.47;;;4.77;;
9328;SDS011;4703;48.748;19.142;2022-12-07T09:52:30;10.80;;;8.40;;
9328;SDS011;4703;48.748;19.142;2022-12-07T09:55:08;4.33;;;3.57;;
9328;SDS011;4703;48.748;19.142;2022-12-07T09:57:40;3.20;;;2.90;;
9328;SDS011;4703;48.748;19.142;2022-12-07T10:00:15;3.63;;;3.30;;
9328;SDS011;4703;48.748;19.142;2022-12-07T10:02:56;5.10;;;4.30;;
9328;SDS011;4703;48.748;19.142;2022-12-07T10:05:29;4.83;;;4.33;;
9328;SDS011;4703;48.748;19.142;2022-12-07T10:08:03;3.67;;;3.40;;
9328;SDS011;4703;48.748;19.142;2022-12-07T10:10:32;2.70;;;2.50;;
9328;SDS011;4703;48.748;19.142;2022-12-07T10:13:09;2.17;;;2.07;;
9328;SDS011;4703;48.748;19.142;2022-12-07T10:15:59;2.60;;;2.40;;
9328;SDS011;4703;48.748;19.142;2022-12-07T10:18:36;3.87;;;3.50;;
9328;SDS011;4703;48.748;19.142;2022-12-07T10:21:12;2.70;;;2.50;;
9328;SDS011;4703;48.748;19.142;2022-12-07T10:24:03;5.40;;;4.30;;
9328;SDS011;4703;48.748;19.142;2022-12-07T10:29:28;5.23;;;4.50;;
9328;SDS011;4703;48.748;19.142;2022-12-07T10:32:02;2.70;;;2.50;;
9328;SDS011;4703;48.748;19.142;2022-12-07T10:34:42;6.83;;;4.97;;
9328;SDS011;4703;48.748;19.142;2022-12-07T10:37:18;2.67;;;2.43;;
9328;SDS011;4703;48.748;19.142;2022-12-07T10:39:47;1.80;;;1.70;;
9328;SDS011;4703;48.748;19.142;2022-12-07T10:42:19;1.87;;;1.77;;
9328;SDS011;4703;48.748;19.142;2022-12-07T10:44:49;1.80;;;1.70;;
9328;SDS011;4703;48.748;19.142;2022-12-07T10:47:43;1.97;;;1.87;;
9328;SDS011;4703;48.748;19.142;2022-12-07T10:50:35;5.07;;;4.60;;
9328;SDS011;4703;48.748;19.142;2022-12-07T10:59:04;1.83;;;1.73;;
9328;SDS011;4703;48.748;19.142;2022-12-07T11:01:57;2.50;;;2.30;;
9328;SDS011;4703;48.748;19.142;2022-12-07T11:04:37;2.80;;;2.00;;
9328;SDS011;4703;48.748;19.142;2022-12-07T11:08:18;2.00;;;1.90;;
9328;SDS011;4703;48.748;19.142;2022-12-07T11:10:53;2.03;;;1.83;;
9328;SDS011;4703;48.748;19.142;2022-12-07T11:13:48;12.20;;;9.30;;
9328;SDS011;4703;48.748;19.142;2022-12-07T11:16:48;2.50;;;2.30;;
9328;SDS011;4703;48.748;19.142;2022-12-07T11:19:42;4.50;;;3.90;;
9328;SDS011;4703;48.748;19.142;2022-12-07T11:30:49;1.90;;;1.67;;
9328;SDS011;4703;48.748;19.142;2022-12-07T11:33:43;1.97;;;1.87;;
9328;SDS011;4703;48.748;19.142;2022-12-07T11:36:35;2.00;;;1.87;;
9328;SDS011;4703;48.748;19.142;2022-12-07T11:39:44;2.73;;;2.53;;
9328;SDS011;4703;48.748;19.142;2022-12-07T11:42:14;2.30;;;2.10;;
9328;SDS011;4703;48.748;19.142;2022-12-07T11:45:10;3.13;;;2.80;;
9328;SDS011;4703;48.748;19.142;2022-12-07T11:50:32;2.37;;;2.20;;
9328;SDS011;4703;48.748;19.142;2022-12-07T12:03:47;3.13;;;2.80;;
9328;SDS011;4703;48.748;19.142;2022-12-07T12:06:19;5.30;;;4.30;;
9328;SDS011;4703;48.748;19.142;2022-12-07T12:11:49;2.50;;;2.30;;
9328;SDS011;4703;48.748;19.142;2022-12-07T12:15:30;3.00;;;2.70;;
9328;SDS011;4703;48.748;19.142;2022-12-07T12:21:00;2.73;;;2.53;;
9328;SDS011;4703;48.748;19.142;2022-12-07T12:23:39;2.93;;;2.63;;
9328;SDS011;4703;48.748;19.142;2022-12-07T12:26:16;3.60;;;3.23;;
9328;SDS011;4703;48.748;19.142;2022-12-07T12:37:13;6.23;;;5.30;;
9328;SDS011;4703;48.748;19.142;2022-12-07T12:42:46;2.93;;;2.57;;
9328;SDS011;4703;48.748;19.142;2022-12-07T12:48:26;1.90;;;1.80;;
9328;SDS011;4703;48.748;19.142;2022-12-07T12:51:35;2.57;;;2.37;;
9328;SDS011;4703;48.748;19.142;2022-12-07T12:54:10;2.80;;;2.47;;
9328;SDS011;4703;48.748;19.142;2022-12-07T12:56:50;3.57;;;3.30;;
9328;SDS011;4703;48.748;19.142;2022-12-07T12:59:29;2.47;;;2.27;;
9328;SDS011;4703;48.748;19.142;2022-12-07T13:07:47;2.20;;;2.10;;
9328;SDS011;4703;48.748;19.142;2022-12-07T13:10:53;3.20;;;2.90;;
9328;SDS011;4703;48.748;19.142;2022-12-07T13:15:50;2.93;;;2.73;;
9328;SDS011;4703;48.748;19.142;2022-12-07T13:28:45;2.80;;;2.60;;
9328;SDS011;4703;48.748;19.142;2022-12-07T13:33:50;2.83;;;2.63;;
9328;SDS011;4703;48.748;19.142;2022-12-07T13:36:37;2.80;;;2.50;;
9328;SDS011;4703;48.748;19.142;2022-12-07T13:41:49;11.00;;;8.40;;
9328;SDS011;4703;48.748;19.142;2022-12-07T13:44:19;3.80;;;3.40;;
9328;SDS011;4703;48.748;19.142;2022-12-07T13:49:51;2.60;;;2.40;;
9328;SDS011;4703;48.748;19.142;2022-12-07T13:52:25;3.60;;;3.30;;
9328;SDS011;4703;48.748;19.142;2022-12-07T13:54:58;3.27;;;3.00;;
9328;SDS011;4703;48.748;19.142;2022-12-07T13:57:28;3.20;;;2.90;;
9328;SDS011;4703;48.748;19.142;2022-12-07T13:59:57;3.30;;;3.00;;
9328;SDS011;4703;48.748;19.142;2022-12-07T14:02:32;3.93;;;3.53;;
9328;SDS011;4703;48.748;19.142;2022-12-07T14:05:24;8.17;;;6.90;;
9328;SDS011;4703;48.748;19.142;2022-12-07T14:07:57;4.50;;;4.03;;
9328;SDS011;4703;48.748;19.142;2022-12-07T14:10:28;3.30;;;3.00;;
9328;SDS011;4703;48.748;19.142;2022-12-07T14:13:00;3.10;;;2.90;;
9328;SDS011;4703;48.748;19.142;2022-12-07T14:15:32;3.33;;;3.10;;
9328;SDS011;4703;48.748;19.142;2022-12-07T14:18:01;3.40;;;3.10;;
9328;SDS011;4703;48.748;19.142;2022-12-07T14:23:04;3.73;;;3.17;;
9328;SDS011;4703;48.748;19.142;2022-12-07T14:25:51;4.20;;;3.67;;
9328;SDS011;4703;48.748;19.142;2022-12-07T14:28:27;3.30;;;3.10;;
9328;SDS011;4703;48.748;19.142;2022-12-07T14:30:59;3.20;;;3.00;;
9328;SDS011;4703;48.748;19.142;2022-12-07T14:33:32;3.97;;;3.63;;
9328;SDS011;4703;48.748;19.142;2022-12-07T14:35:59;3.93;;;3.20;;
9328;SDS011;4703;48.748;19.142;2022-12-07T14:38:26;2.90;;;2.70;;
9328;SDS011;4703;48.748;19.142;2022-12-07T14:40:53;2.80;;;2.60;;
9328;SDS011;4703;48.748;19.142;2022-12-07T14:43:41;8.00;;;5.47;;
9328;SDS011;4703;48.748;19.142;2022-12-07T14:46:28;4.40;;;3.97;;
9328;SDS011;4703;48.748;19.142;2022-12-07T14:48:55;7.97;;;6.47;;
9328;SDS011;4703;48.748;19.142;2022-12-07T14:51:42;3.70;;;3.40;;
9328;SDS011;4703;48.748;19.142;2022-12-07T14:54:32;3.50;;;2.90;;
9328;SDS011;4703;48.748;19.142;2022-12-07T14:56:59;14.87;;;10.53;;
9328;SDS011;4703;48.748;19.142;2022-12-07T14:59:26;7.57;;;6.20;;
9328;SDS011;4703;48.748;19.142;2022-12-07T15:01:53;5.03;;;4.07;;
9328;SDS011;4703;48.748;19.142;2022-12-07T15:04:20;3.53;;;3.23;;
9328;SDS011;4703;48.748;19.142;2022-12-07T15:06:55;4.20;;;3.80;;
9328;SDS011;4703;48.748;19.142;2022-12-07T15:09:28;4.10;;;3.80;;
9328;SDS011;4703;48.748;19.142;2022-12-07T15:11:55;5.70;;;4.20;;
9328;SDS011;4703;48.748;19.142;2022-12-07T15:14:22;3.93;;;3.53;;
9328;SDS011;4703;48.748;19.142;2022-12-07T15:16:50;3.97;;;3.67;;
9328;SDS011;4703;48.748;19.142;2022-12-07T15:19:35;5.23;;;4.53;;
9328;SDS011;4703;48.748;19.142;2022-12-07T15:22:02;4.97;;;4.47;;
9328;SDS011;4703;48.748;19.142;2022-12-07T15:24:29;5.50;;;4.33;;
9328;SDS011;4703;48.748;19.142;2022-12-07T15:26:56;7.03;;;5.33;;
9328;SDS011;4703;48.748;19.142;2022-12-07T15:29:23;4.33;;;3.93;;
9328;SDS011;4703;48.748;19.142;2022-12-07T15:31:51;5.00;;;4.43;;
9328;SDS011;4703;48.748;19.142;2022-12-07T15:34:24;8.30;;;6.83;;
9328;SDS011;4703;48.748;19.142;2022-12-07T15:37:01;10.27;;;7.23;;
9328;SDS011;4703;48.748;19.142;2022-12-07T15:39:28;10.90;;;9.20;;
9328;SDS011;4703;48.748;19.142;2022-12-07T15:41:55;9.00;;;8.10;;
9328;SDS011;4703;48.748;19.142;2022-12-07T15:44:22;9.10;;;8.17;;
9328;SDS011;4703;48.748;19.142;2022-12-07T15:47:07;13.27;;;10.57;;
9328;SDS011;4703;48.748;19.142;2022-12-07T15:49:34;10.33;;;8.43;;
9328;SDS011;4703;48.748;19.142;2022-12-07T15:52:01;12.27;;;9.90;;
9328;SDS011;4703;48.748;19.142;2022-12-07T15:54:29;11.10;;;9.93;;
9328;SDS011;4703;48.748;19.142;2022-12-07T15:56:56;14.17;;;10.83;;
9328;SDS011;4703;48.748;19.142;2022-12-07T15:59:23;14.50;;;11.73;;
9328;SDS011;4703;48.748;19.142;2022-12-07T16:01:53;12.93;;;10.13;;
9328;SDS011;4703;48.748;19.142;2022-12-07T16:04:20;13.47;;;10.27;;
9328;SDS011;4703;48.748;19.142;2022-12-07T16:06:47;13.63;;;9.73;;
9328;SDS011;4703;48.748;19.142;2022-12-07T16:09:16;11.83;;;10.43;;
9328;SDS011;4703;48.748;19.142;2022-12-07T16:11:43;21.13;;;15.20;;
9328;SDS011;4703;48.748;19.142;2022-12-07T16:14:10;15.77;;;11.60;;
9328;SDS011;4703;48.748;19.142;2022-12-07T16:16:37;12.03;;;10.23;;
9328;SDS011;4703;48.748;19.142;2022-12-07T16:19:09;14.37;;;10.33;;
9328;SDS011;4703;48.748;19.142;2022-12-07T16:21:37;12.17;;;9.97;;
9328;SDS011;4703;48.748;19.142;2022-12-07T16:24:05;12.80;;;10.13;;
9328;SDS011;4703;48.748;19.142;2022-12-07T16:26:32;16.60;;;10.87;;
9328;SDS011;4703;48.748;19.142;2022-12-07T16:28:59;11.83;;;10.60;;
9328;SDS011;4703;48.748;19.142;2022-12-07T16:31:27;10.97;;;9.87;;
9328;SDS011;4703;48.748;19.142;2022-12-07T16:33:55;12.43;;;9.33;;
9328;SDS011;4703;48.748;19.142;2022-12-07T16:36:24;13.83;;;9.47;;
9328;SDS011;4703;48.748;19.142;2022-12-07T16:39:13;12.40;;;9.17;;
9328;SDS011;4703;48.748;19.142;2022-12-07T16:41:40;10.67;;;9.37;;
9328;SDS011;4703;48.748;19.142;2022-12-07T16:44:09;15.27;;;10.07;;
9328;SDS011;4703;48.748;19.142;2022-12-07T16:46:39;13.20;;;10.70;;
9328;SDS011;4703;48.748;19.142;2022-12-07T16:49:08;16.73;;;12.90;;
9328;SDS011;4703;48.748;19.142;2022-12-07T16:51:41;15.20;;;13.67;;
9328;SDS011;4703;48.748;19.142;2022-12-07T16:54:11;23.70;;;18.30;;
9328;SDS011;4703;48.748;19.142;2022-12-07T16:56:39;18.77;;;15.67;;
9328;SDS011;4703;48.748;19.142;2022-12-07T16:59:07;17.97;;;14.80;;
9328;SDS011;4703;48.748;19.142;2022-12-07T17:01:35;16.93;;;13.40;;
9328;SDS011;4703;48.748;19.142;2022-12-07T17:04:02;16.80;;;14.40;;
9328;SDS011;4703;48.748;19.142;2022-12-07T17:06:30;15.73;;;12.53;;
9328;SDS011;4703;48.748;19.142;2022-12-07T17:08:58;19.67;;;17.03;;
9328;SDS011;4703;48.748;19.142;2022-12-07T17:11:27;20.63;;;15.77;;
9328;SDS011;4703;48.748;19.142;2022-12-07T17:13:57;23.80;;;18.07;;
9328;SDS011;4703;48.748;19.142;2022-12-07T17:16:42;24.73;;;18.30;;
9328;SDS011;4703;48.748;19.142;2022-12-07T17:19:11;23.17;;;18.20;;
9328;SDS011;4703;48.748;19.142;2022-12-07T17:21:41;22.90;;;17.87;;
9328;SDS011;4703;48.748;19.142;2022-12-07T17:24:10;21.30;;;16.27;;
9328;SDS011;4703;48.748;19.142;2022-12-07T17:26:42;20.13;;;17.00;;
9328;SDS011;4703;48.748;19.142;2022-12-07T17:29:11;20.17;;;16.77;;
9328;SDS011;4703;48.748;19.142;2022-12-07T17:31:40;43.10;;;33.60;;
9328;SDS011;4703;48.748;19.142;2022-12-07T17:34:16;36.60;;;29.33;;
9328;SDS011;4703;48.748;19.142;2022-12-07T17:36:43;22.13;;;19.10;;